createdAt,value
2017-10-05T00:02:20.891Z,84.29
2017-10-05T00:04:49.975Z,83.86
2017-10-05T00:07:19.912Z,84.03
2017-10-05T00:09:48.032Z,83.59
2017-10-05T00:12:15.621Z,83.38
2017-10-05T00:14:43.202Z,83.38
2017-10-05T00:17:10.813Z,83.34
2017-10-05T00:19:38.391Z,82.86
2017-10-05T00:22:07.300Z,83.12
2017-10-05T00:24:35.206Z,82.74
2017-10-05T00:27:03.213Z,82.50
2017-10-05T00:29:31.332Z,82.13
2017-10-05T00:31:58.905Z,81.90
2017-10-05T00:34:29.336Z,81.64
2017-10-05T00:36:57.356Z,81.71
2017-10-05T00:39:26.364Z,81.30
2017-10-05T00:41:55.913Z,81.67
2017-10-05T00:44:23.899Z,81.57
2017-10-05T00:46:51.847Z,81.59
2017-10-05T00:49:19.450Z,81.61
2017-10-05T00:51:47.036Z,81.56
2017-10-05T00:54:16.023Z,81.32
2017-10-05T00:56:43.622Z,80.70
2017-10-05T00:59:12.129Z,80.77
2017-10-05T01:01:41.973Z,80.44
2017-10-05T01:04:09.559Z,80.31
2017-10-05T01:06:37.157Z,80.04
2017-10-05T01:09:04.736Z,80.05
2017-10-05T01:11:32.345Z,80.17
2017-10-05T01:14:00.601Z,79.97
2017-10-05T01:16:29.578Z,79.42
2017-10-05T01:18:58.580Z,78.33
2017-10-05T01:21:26.155Z,78.04
2017-10-05T01:23:55.418Z,78.17
2017-10-05T01:26:24.427Z,78.25
2017-10-05T01:28:52.194Z,77.52
2017-10-05T01:31:19.773Z,77.57
2017-10-05T01:33:47.397Z,77.28
2017-10-05T01:36:15.273Z,77.32
2017-10-05T01:38:44.558Z,77.21
2017-10-05T01:41:13.893Z,77.46
2017-10-05T01:43:42.786Z,77.64
2017-10-05T01:46:10.337Z,77.55
2017-10-05T01:48:38.232Z,77.83
2017-10-05T01:51:07.630Z,77.77
2017-10-05T01:53:36.706Z,78.08
2017-10-05T01:56:04.317Z,78.04
2017-10-05T01:58:31.885Z,78.96
2017-10-05T02:00:59.857Z,77.73
2017-10-05T02:03:27.437Z,78.08
2017-10-05T02:05:56.801Z,79.09
2017-10-05T02:08:25.485Z,79.10
2017-10-05T02:10:53.030Z,79.19
2017-10-05T02:13:21.715Z,79.60
2017-10-05T02:15:52.013Z,79.31
2017-10-05T02:18:20.730Z,79.69
2017-10-05T02:20:50.048Z,79.57
2017-10-05T02:23:19.674Z,79.70
2017-10-05T02:25:47.254Z,79.56
2017-10-05T02:28:15.165Z,79.36
2017-10-05T02:30:46.440Z,79.20
2017-10-05T02:33:16.735Z,79.60
2017-10-05T02:35:45.620Z,79.41
2017-10-05T02:38:13.192Z,79.39
2017-10-05T02:40:40.788Z,79.79
2017-10-05T02:43:08.699Z,79.36
2017-10-05T02:45:37.509Z,80.11
2017-10-05T02:48:06.363Z,80.01
2017-10-05T02:50:34.307Z,79.98
2017-10-05T02:53:03.136Z,79.94
2017-10-05T02:55:30.706Z,80.12
2017-10-05T02:57:59.163Z,80.12
2017-10-05T03:00:26.702Z,80.28
2017-10-05T03:02:54.290Z,80.56
2017-10-05T03:05:26.433Z,80.63
2017-10-05T03:07:54.044Z,80.54
2017-10-05T03:10:22.905Z,80.64
2017-10-05T03:12:50.495Z,81.11
2017-10-05T03:15:18.521Z,81.59
2017-10-05T03:17:46.078Z,81.61
2017-10-05T03:20:14.992Z,81.90
2017-10-05T03:22:42.551Z,82.71
2017-10-05T03:25:11.287Z,82.67
2017-10-05T03:27:38.944Z,82.83
2017-10-05T03:30:06.537Z,82.97
2017-10-05T03:32:35.527Z,83.13
2017-10-05T03:35:04.537Z,83.31
2017-10-05T03:37:32.497Z,83.60
2017-10-05T03:40:00.394Z,83.97
2017-10-05T03:42:27.979Z,83.93
2017-10-05T03:44:55.955Z,84.05
2017-10-05T03:47:23.541Z,84.55
2017-10-05T03:49:53.548Z,84.53
2017-10-05T03:52:22.494Z,84.84
2017-10-05T03:54:50.857Z,84.59
2017-10-05T03:57:18.924Z,85.10
2017-10-05T03:59:46.557Z,85.04
2017-10-05T04:02:14.174Z,85.08
2017-10-05T04:04:42.181Z,85.00
2017-10-05T04:07:09.776Z,85.24
2017-10-05T04:09:38.791Z,85.28
2017-10-05T04:12:06.987Z,85.48
2017-10-05T04:14:35.856Z,85.51
2017-10-05T04:17:03.418Z,85.62
2017-10-05T04:19:31.132Z,85.46
2017-10-05T04:21:59.126Z,85.94
2017-10-05T04:24:27.073Z,85.98
2017-10-05T04:26:54.651Z,86.07
2017-10-05T04:29:22.236Z,85.86
2017-10-05T04:31:51.127Z,86.19
2017-10-05T04:34:20.732Z,86.06
2017-10-05T04:36:48.662Z,86.07
2017-10-05T04:39:18.131Z,86.53
2017-10-05T04:41:45.746Z,86.85
2017-10-05T04:44:13.327Z,86.84
2017-10-05T04:46:41.254Z,86.76
2017-10-05T04:49:08.833Z,86.80
2017-10-05T04:51:37.725Z,86.85
2017-10-05T04:54:05.324Z,87.07
2017-10-05T04:56:35.902Z,87.37
2017-10-05T04:59:04.618Z,87.66
2017-10-05T05:01:33.727Z,88.14
2017-10-05T05:04:01.792Z,88.40
2017-10-05T05:06:31.000Z,88.68
2017-10-05T05:08:59.071Z,88.54
2017-10-05T05:11:27.060Z,88.76
2017-10-05T05:13:54.980Z,88.99
2017-10-05T05:16:22.674Z,89.12
2017-10-05T05:18:52.038Z,89.19
2017-10-05T05:21:19.633Z,88.97
2017-10-05T05:23:48.892Z,89.04
2017-10-05T05:26:16.501Z,88.97
2017-10-05T05:28:44.446Z,89.09
2017-10-05T05:31:12.589Z,88.78
2017-10-05T05:33:40.166Z,88.48
2017-10-05T05:36:10.526Z,88.15
2017-10-05T05:38:38.450Z,88.00
2017-10-05T05:41:06.055Z,87.83
2017-10-05T05:43:33.785Z,87.70
2017-10-05T05:46:02.908Z,87.62
2017-10-05T05:48:30.497Z,87.56
2017-10-05T05:51:01.376Z,87.58
2017-10-05T05:53:29.743Z,87.72
2017-10-05T05:55:57.809Z,87.66
2017-10-05T05:58:25.396Z,87.49
2017-10-05T06:00:53.469Z,87.58
2017-10-05T06:03:21.051Z,87.39
2017-10-05T06:05:49.518Z,86.80
2017-10-05T06:08:19.800Z,86.43
2017-10-05T06:10:47.408Z,85.94
2017-10-05T06:13:16.747Z,85.66
2017-10-05T06:15:44.352Z,85.17
2017-10-05T06:18:12.982Z,85.06
2017-10-05T06:20:40.655Z,84.25
2017-10-05T06:23:08.667Z,83.87
2017-10-05T06:25:39.317Z,83.46
2017-10-05T06:28:08.501Z,83.57
2017-10-05T06:30:36.106Z,83.13
2017-10-05T06:33:07.162Z,83.05
2017-10-05T06:35:34.752Z,81.78
2017-10-05T06:38:03.756Z,80.93
2017-10-05T06:40:32.393Z,80.18
2017-10-05T06:42:59.944Z,79.34
2017-10-05T06:45:27.975Z,78.43
2017-10-05T06:47:56.130Z,77.88
2017-10-05T06:50:24.098Z,77.77
2017-10-05T06:52:52.074Z,75.82
2017-10-05T06:55:19.685Z,75.06
2017-10-05T06:57:48.396Z,74.37
2017-10-05T07:00:17.850Z,75.26
2017-10-05T07:02:45.786Z,74.01
2017-10-05T07:05:14.894Z,74.27
2017-10-05T07:07:42.475Z,73.92
2017-10-05T07:10:11.607Z,71.88
2017-10-05T07:12:40.916Z,73.05
2017-10-05T07:15:08.518Z,72.69
2017-10-05T07:17:36.103Z,71.90
2017-10-05T07:20:03.683Z,72.15
2017-10-05T07:22:31.666Z,70.25
2017-10-05T07:25:02.013Z,69.54
2017-10-05T07:27:32.437Z,69.26
2017-10-05T07:30:00.057Z,68.42
2017-10-05T07:32:27.993Z,68.66
2017-10-05T07:34:56.494Z,69.34
2017-10-05T07:37:28.040Z,69.19
2017-10-05T07:39:56.079Z,67.27
2017-10-05T07:42:24.081Z,68.86
2017-10-05T07:44:51.654Z,67.97
2017-10-05T07:47:19.283Z,68.34
2017-10-05T07:49:46.873Z,68.18
2017-10-05T07:52:14.489Z,66.40
2017-10-05T07:54:42.068Z,66.25
2017-10-05T07:57:09.653Z,64.46
2017-10-05T07:59:37.763Z,64.01
2017-10-05T08:02:05.510Z,63.94
2017-10-05T08:04:33.537Z,63.65
2017-10-05T08:07:01.176Z,62.09
2017-10-05T08:09:28.804Z,60.99
2017-10-05T08:11:56.388Z,62.04
2017-10-05T08:14:23.994Z,58.61
2017-10-05T08:16:51.940Z,60.09
2017-10-05T08:19:19.937Z,61.36
2017-10-05T08:21:47.533Z,58.77
2017-10-05T08:24:15.107Z,57.05
2017-10-05T08:26:42.718Z,57.56
2017-10-05T08:29:10.292Z,57.63
2017-10-05T08:31:39.264Z,55.57
2017-10-05T08:34:06.839Z,57.18
2017-10-05T08:36:34.464Z,56.50
2017-10-05T08:39:02.045Z,56.69
2017-10-05T08:41:29.609Z,57.61
2017-10-05T08:43:57.189Z,54.48
2017-10-05T08:46:24.754Z,55.34
2017-10-05T08:48:52.358Z,53.61
2017-10-05T08:51:20.153Z,54.17
2017-10-05T08:53:47.756Z,54.53
2017-10-05T08:56:15.549Z,53.73
2017-10-05T08:58:44.843Z,54.35
2017-10-05T09:01:13.994Z,53.70
2017-10-05T09:03:42.251Z,54.09
2017-10-05T09:06:09.821Z,53.72
2017-10-05T09:08:37.421Z,55.54
2017-10-05T09:11:06.762Z,55.08
2017-10-05T09:13:34.329Z,55.13
2017-10-05T09:16:01.911Z,53.11
2017-10-05T09:18:29.482Z,53.85
2017-10-05T09:20:57.076Z,55.10
2017-10-05T09:23:25.060Z,54.34
2017-10-05T09:25:52.704Z,55.25
2017-10-05T09:28:20.286Z,54.97
2017-10-05T09:30:48.203Z,55.01
2017-10-05T09:33:15.795Z,53.45
2017-10-05T09:35:43.786Z,53.24
2017-10-05T09:38:11.397Z,52.49
2017-10-05T09:40:40.404Z,52.09
2017-10-05T09:43:08.013Z,51.55
2017-10-05T09:45:35.582Z,49.86
2017-10-05T09:48:03.547Z,49.11
2017-10-05T09:50:32.602Z,49.70
2017-10-05T09:53:00.689Z,50.13
2017-10-05T09:55:29.118Z,50.38
2017-10-05T09:57:56.703Z,49.31
2017-10-05T10:00:24.988Z,49.73
2017-10-05T10:02:53.219Z,49.68
2017-10-05T10:05:21.236Z,49.67
2017-10-05T10:07:49.230Z,47.55
2017-10-05T10:10:16.821Z,49.13
2017-10-05T10:12:44.439Z,47.83
2017-10-05T10:15:14.697Z,46.93
2017-10-05T10:17:43.009Z,46.65
2017-10-05T10:20:11.012Z,48.38
2017-10-05T10:22:38.742Z,46.38
2017-10-05T10:25:06.475Z,45.91
2017-10-05T10:27:34.108Z,46.80
2017-10-05T10:30:02.697Z,47.09
2017-10-05T10:32:30.266Z,45.98
2017-10-05T10:34:57.891Z,46.91
2017-10-05T10:37:25.482Z,46.55
2017-10-05T10:39:53.226Z,44.46
2017-10-05T10:42:20.844Z,45.12
2017-10-05T10:44:48.431Z,43.96
2017-10-05T10:47:15.989Z,45.39
2017-10-05T10:49:43.883Z,44.88
2017-10-05T10:52:11.456Z,44.35
2017-10-05T10:54:39.042Z,44.67
2017-10-05T10:57:07.899Z,43.62
2017-10-05T10:59:36.701Z,44.86
2017-10-05T11:02:04.734Z,44.34
2017-10-05T11:04:32.341Z,42.53
2017-10-05T11:07:03.046Z,42.97
2017-10-05T11:09:31.352Z,41.68
2017-10-05T11:12:01.196Z,41.51
2017-10-05T11:14:28.808Z,40.02
2017-10-05T11:16:56.407Z,41.18
2017-10-05T11:19:24.031Z,39.73
2017-10-05T11:21:52.918Z,41.18
2017-10-05T11:24:20.535Z,41.83
2017-10-05T11:26:48.118Z,39.27
2017-10-05T11:29:15.726Z,38.26
2017-10-05T11:31:43.511Z,37.53
2017-10-05T11:34:11.905Z,39.03
2017-10-05T11:36:39.511Z,39.43
2017-10-05T11:39:07.107Z,39.03
2017-10-05T11:41:34.780Z,39.60
2017-10-05T11:44:02.371Z,37.64
2017-10-05T11:46:30.333Z,38.01
2017-10-05T11:48:57.895Z,36.09
2017-10-05T11:51:25.498Z,36.24
2017-10-05T11:53:53.604Z,38.08
2017-10-05T11:56:21.865Z,38.03
2017-10-05T11:58:49.470Z,38.71
2017-10-05T12:01:17.048Z,37.31
2017-10-05T12:03:45.162Z,37.58
2017-10-05T12:06:12.753Z,37.61
2017-10-05T12:08:40.363Z,37.89
2017-10-05T12:11:08.328Z,37.83
2017-10-05T12:13:36.223Z,37.15
2017-10-05T12:16:03.816Z,37.21
2017-10-05T12:18:31.395Z,35.99
2017-10-05T12:20:59.435Z,34.83
2017-10-05T12:23:27.040Z,33.78
2017-10-05T12:25:54.641Z,35.89
2017-10-05T12:28:22.205Z,38.23
2017-10-05T12:30:50.180Z,37.02
2017-10-05T12:33:17.761Z,38.02
2017-10-05T12:35:45.327Z,37.12
2017-10-05T12:38:13.255Z,36.15
2017-10-05T12:40:40.855Z,35.60
2017-10-05T12:43:08.481Z,36.43
2017-10-05T12:45:36.066Z,35.78
2017-10-05T12:48:04.017Z,36.74
2017-10-05T12:50:33.272Z,36.26
2017-10-05T12:53:00.890Z,36.49
2017-10-05T12:55:29.154Z,36.16
2017-10-05T12:57:56.780Z,36.23
2017-10-05T13:00:24.952Z,37.25
2017-10-05T13:02:52.935Z,36.00
2017-10-05T13:05:20.689Z,36.40
2017-10-05T13:07:48.262Z,36.10
2017-10-05T13:10:17.153Z,36.57
2017-10-05T13:12:44.727Z,37.27
2017-10-05T13:15:12.347Z,36.52
2017-10-05T13:17:39.935Z,37.44
2017-10-05T13:20:08.206Z,36.13
2017-10-05T13:22:35.787Z,36.71
2017-10-05T13:25:03.376Z,37.30
2017-10-05T13:27:30.976Z,36.21
2017-10-05T13:29:58.990Z,35.80
2017-10-05T13:32:29.184Z,37.36
2017-10-05T13:34:56.914Z,37.80
2017-10-05T13:37:24.536Z,38.18
2017-10-05T13:39:52.240Z,37.11
2017-10-05T13:42:21.139Z,38.37
2017-10-05T13:44:48.729Z,38.33
2017-10-05T13:47:16.658Z,38.14
2017-10-05T13:49:44.902Z,38.19
2017-10-05T13:52:12.586Z,38.44
2017-10-05T13:54:40.562Z,37.42
2017-10-05T13:57:08.440Z,38.24
2017-10-05T13:59:36.472Z,38.41
2017-10-05T14:02:04.115Z,38.22
2017-10-05T14:04:32.087Z,38.62
2017-10-05T14:06:59.658Z,36.33
2017-10-05T14:09:27.232Z,35.67
2017-10-05T14:11:54.886Z,35.98
2017-10-05T14:14:22.469Z,38.62
2017-10-05T14:16:50.076Z,35.83
2017-10-05T14:19:18.172Z,37.33
2017-10-05T14:21:45.817Z,36.68
2017-10-05T14:24:13.407Z,36.84
2017-10-05T14:26:41.094Z,36.29
2017-10-05T14:29:08.691Z,36.00
2017-10-05T14:31:36.294Z,36.45
2017-10-05T14:34:03.895Z,36.71
2017-10-05T14:36:31.597Z,35.16
2017-10-05T14:38:59.201Z,35.09
2017-10-05T14:41:28.157Z,38.43
2017-10-05T14:43:55.791Z,37.49
2017-10-05T14:46:24.801Z,37.36
2017-10-05T14:48:52.420Z,36.88
2017-10-05T14:51:20.491Z,35.54
2017-10-05T14:53:49.487Z,39.98
2017-10-05T14:56:17.101Z,40.38
2017-10-05T14:58:44.663Z,40.13
2017-10-05T15:01:12.668Z,40.60
2017-10-05T15:03:40.720Z,42.25
2017-10-05T15:06:08.711Z,41.95
2017-10-05T15:08:36.314Z,41.60
2017-10-05T15:11:03.939Z,41.04
2017-10-05T15:13:31.514Z,42.92
2017-10-05T15:15:59.566Z,41.78
2017-10-05T15:18:27.184Z,42.05
2017-10-05T15:20:54.766Z,44.24
2017-10-05T15:23:22.358Z,42.53
2017-10-05T15:25:49.952Z,42.25
2017-10-05T15:28:17.888Z,42.18
2017-10-05T15:30:45.906Z,42.16
2017-10-05T15:33:13.528Z,42.77
2017-10-05T15:35:41.520Z,44.52
2017-10-05T15:38:09.087Z,44.77
2017-10-05T15:40:38.323Z,47.29
2017-10-05T15:43:08.871Z,47.57
2017-10-05T15:45:36.708Z,47.25
2017-10-05T15:48:04.644Z,48.10
2017-10-05T15:50:32.270Z,48.92
2017-10-05T15:52:59.934Z,50.24
2017-10-05T15:55:27.550Z,51.10
2017-10-05T15:57:55.934Z,50.97
2017-10-05T16:00:25.280Z,52.96
2017-10-05T16:03:00.665Z,53.84
2017-10-05T16:11:21.280Z,55.34
2017-10-05T16:13:48.850Z,55.37
2017-10-05T16:16:17.629Z,56.63
2017-10-05T16:18:46.460Z,56.50
2017-10-05T16:21:14.053Z,57.66
2017-10-05T16:23:44.288Z,58.36
2017-10-05T16:26:11.859Z,61.23
2017-10-05T16:28:40.787Z,62.18
2017-10-05T16:31:16.289Z,64.81
2017-10-05T16:33:46.968Z,64.95
2017-10-05T16:36:17.310Z,66.93
2017-10-05T16:38:45.388Z,69.58
2017-10-05T16:41:15.062Z,72.80
2017-10-05T16:43:42.656Z,72.40
2017-10-05T16:46:10.660Z,74.18
2017-10-05T16:48:38.265Z,75.01
2017-10-05T16:51:06.782Z,76.06
2017-10-05T16:53:34.892Z,76.58
2017-10-05T16:56:02.520Z,78.03
2017-10-05T16:58:32.980Z,78.13
2017-10-05T17:01:06.268Z,78.27
2017-10-05T17:03:33.929Z,80.09
2017-10-05T17:06:05.327Z,79.57
2017-10-05T17:08:35.987Z,80.82
2017-10-05T17:11:05.998Z,81.14
2017-10-05T17:13:34.771Z,81.91
2017-10-05T17:16:02.366Z,82.12
2017-10-05T17:18:29.980Z,82.78
2017-10-05T17:20:59.042Z,83.57
2017-10-05T17:23:26.661Z,83.52
2017-10-05T17:25:55.881Z,84.12
2017-10-05T17:28:23.512Z,84.36
2017-10-05T17:30:51.292Z,84.75
2017-10-05T17:33:19.574Z,84.79
2017-10-05T17:35:47.126Z,85.41
2017-10-05T17:38:14.706Z,84.90
2017-10-05T17:40:44.069Z,85.48
2017-10-05T17:43:12.046Z,86.23
2017-10-05T17:45:39.667Z,86.35
2017-10-05T17:48:08.715Z,86.33
2017-10-05T17:50:36.391Z,86.84
2017-10-05T17:53:04.389Z,87.23
2017-10-05T17:55:32.030Z,87.43
2017-10-05T17:57:59.760Z,88.04
2017-10-05T18:00:27.509Z,88.62
2017-10-05T18:02:55.112Z,88.70
2017-10-05T18:05:22.704Z,88.19
2017-10-05T18:07:50.723Z,88.43
2017-10-05T18:10:18.740Z,88.80
2017-10-05T18:12:47.857Z,88.67
2017-10-05T18:15:17.048Z,89.25
2017-10-05T18:17:45.104Z,88.84
2017-10-05T18:20:12.696Z,89.31
2017-10-05T18:22:41.399Z,89.36
2017-10-05T18:25:10.588Z,89.66
2017-10-05T18:27:39.641Z,83.11
2017-10-05T18:30:07.288Z,83.35
2017-10-05T18:32:38.887Z,84.60
2017-10-05T18:35:06.498Z,84.24
2017-10-05T18:37:34.121Z,83.28
2017-10-05T18:40:03.634Z,84.41
2017-10-05T18:42:32.575Z,83.77
2017-10-05T18:45:01.481Z,84.83
2017-10-05T18:47:30.471Z,85.52
2017-10-05T18:49:59.145Z,86.59
2017-10-05T18:52:27.501Z,86.10
2017-10-05T18:54:55.856Z,86.99
2017-10-05T18:57:24.552Z,86.64
2017-10-05T18:59:52.351Z,86.94
2017-10-05T19:02:22.325Z,86.61
2017-10-05T19:04:49.913Z,86.40
2017-10-05T19:07:17.576Z,86.70
2017-10-05T19:09:45.192Z,87.53
2017-10-05T19:12:12.837Z,87.20
2017-10-05T19:14:40.452Z,87.36
2017-10-05T19:17:09.843Z,88.02
2017-10-05T19:19:38.635Z,87.84
2017-10-05T19:22:07.394Z,86.28
2017-10-05T19:24:36.050Z,86.18
2017-10-05T19:27:05.716Z,87.17
2017-10-05T19:29:33.369Z,86.65
2017-10-05T19:32:03.009Z,87.58
2017-10-05T19:34:30.601Z,86.98
2017-10-05T19:36:58.605Z,86.64
2017-10-05T19:39:27.037Z,86.42
2017-10-05T19:41:54.662Z,86.76
2017-10-05T19:44:22.886Z,86.74
2017-10-05T19:46:52.889Z,86.84
2017-10-05T19:49:20.498Z,87.00
2017-10-05T19:51:48.101Z,87.92
2017-10-05T19:54:15.716Z,87.22
2017-10-05T19:56:43.780Z,87.08
2017-10-05T19:59:12.772Z,87.23
2017-10-05T20:01:40.382Z,87.17
2017-10-05T20:04:11.047Z,87.97
2017-10-05T20:06:39.021Z,87.84
2017-10-05T20:09:06.979Z,87.52
2017-10-05T20:11:36.008Z,87.64
2017-10-05T20:17:24.764Z,87.12
2017-10-05T20:19:57.870Z,87.44
2017-10-05T20:22:31.346Z,87.73
2017-10-05T20:25:01.736Z,87.61
2017-10-05T20:27:32.997Z,87.87
2017-10-05T20:30:19.714Z,87.89
2017-10-05T20:32:47.697Z,88.21
2017-10-05T20:35:15.988Z,87.94
2017-10-05T20:37:43.581Z,88.15
2017-10-05T20:40:11.117Z,88.37
2017-10-05T20:42:40.154Z,87.86
2017-10-05T20:45:07.770Z,87.49
2017-10-05T20:47:35.359Z,87.43
2017-10-05T20:50:04.441Z,87.40
2017-10-05T20:52:32.416Z,88.34
2017-10-05T20:55:00.493Z,87.83
2017-10-05T20:57:28.095Z,88.30
2017-10-05T20:59:56.120Z,87.50
2017-10-05T21:02:23.712Z,87.53
2017-10-05T21:04:51.299Z,86.97
2017-10-05T21:07:19.301Z,87.66
2017-10-05T21:09:46.882Z,88.46
2017-10-05T21:12:14.899Z,87.92
2017-10-05T21:14:42.476Z,88.18
2017-10-05T21:17:10.557Z,87.58
2017-10-05T21:19:38.150Z,87.66
2017-10-05T21:22:06.180Z,87.71
2017-10-05T21:24:34.511Z,87.71
2017-10-05T21:27:02.118Z,87.77
2017-10-05T21:29:29.709Z,88.35
2017-10-05T21:31:57.329Z,88.47
2017-10-05T21:34:25.537Z,88.12
2017-10-05T21:36:53.592Z,87.04
2017-10-05T21:39:21.155Z,87.25
2017-10-05T21:41:49.060Z,87.36
2017-10-05T21:44:16.960Z,87.92
2017-10-05T21:46:44.550Z,87.70
2017-10-05T21:49:12.178Z,87.61
2017-10-05T21:51:39.764Z,87.85
2017-10-05T21:54:08.571Z,87.91
2017-10-05T21:56:36.131Z,88.25
2017-10-05T21:59:03.729Z,87.67
2017-10-05T22:01:31.283Z,87.53
2017-10-05T22:03:59.202Z,87.83
2017-10-05T22:06:26.804Z,87.44
2017-10-05T22:08:55.027Z,88.00
2017-10-05T22:11:22.621Z,87.26
2017-10-05T22:13:50.215Z,87.23
2017-10-05T22:16:17.853Z,87.79
2017-10-05T22:18:45.412Z,87.68
2017-10-05T22:21:13.361Z,87.50
2017-10-05T22:23:41.687Z,87.61
2017-10-05T22:26:09.269Z,87.65
2017-10-05T22:28:36.859Z,87.60
2017-10-05T22:31:04.418Z,87.56
2017-10-05T22:33:32.121Z,87.91
2017-10-05T22:36:01.144Z,88.20
2017-10-05T22:38:28.811Z,88.10
2017-10-05T22:40:56.422Z,88.19
2017-10-05T22:43:24.013Z,87.76
2017-10-05T22:45:51.621Z,87.32
2017-10-05T22:48:19.219Z,86.76
2017-10-05T22:50:47.629Z,86.95
2017-10-05T22:53:15.228Z,87.29
2017-10-05T22:55:43.217Z,87.27
2017-10-05T22:58:11.914Z,86.90
2017-10-05T23:00:40.043Z,87.31
2017-10-05T23:03:08.352Z,87.41
2017-10-05T23:05:35.918Z,88.08
2017-10-05T23:08:04.504Z,87.66
2017-10-05T23:10:32.060Z,87.79
2017-10-05T23:12:59.970Z,87.97
2017-10-05T23:15:27.538Z,87.92
2017-10-05T23:17:55.484Z,87.87
2017-10-05T23:20:23.068Z,87.76
2017-10-05T23:22:50.649Z,87.96
2017-10-05T23:25:18.267Z,88.09
2017-10-05T23:27:46.016Z,87.61
2017-10-05T23:30:13.622Z,87.40
2017-10-05T23:32:41.217Z,87.36
2017-10-05T23:35:09.156Z,87.59
2017-10-05T23:37:36.754Z,87.93
2017-10-05T23:40:04.455Z,87.85
2017-10-05T23:42:32.082Z,87.98
2017-10-05T23:44:59.656Z,88.40
2017-10-05T23:47:27.273Z,88.58
2017-10-05T23:49:55.247Z,88.67
2017-10-05T23:52:22.808Z,88.62
2017-10-05T23:54:50.415Z,88.40
2017-10-05T23:57:18.537Z,88.56
2017-10-05T23:59:46.123Z,89.02
